sensor_id;sensor_type;location;lat;lon;timestamp;pressure;altitude;pressure_sealevel;temperature;humidity
17060;BME280;8646;49.716;9.266;2023-02-19T00:00:51;100697.91;;;11.67;77.54
17060;BME280;8646;49.716;9.266;2023-02-19T00:03:58;100677.94;;;11.68;77.85
17060;BME280;8646;49.716;9.266;2023-02-19T00:07:01;100684.25;;;11.68;77.59
17060;BME280;8646;49.716;9.266;2023-02-19T00:10:05;100680.75;;;11.66;78.00
17060;BME280;8646;49.716;9.266;2023-02-19T00:13:07;100675.38;;;11.65;78.05
17060;BME280;8646;49.716;9.266;2023-02-19T00:16:13;100668.25;;;11.62;78.38
17060;BME280;8646;49.716;9.266;2023-02-19T00:19:19;100654.69;;;11.62;78.21
17060;BME280;8646;49.716;9.266;2023-02-19T00:22:22;100641.22;;;11.61;78.36
17060;BME280;8646;49.716;9.266;2023-02-19T00:25:25;100669.13;;;11.63;78.64
17060;BME280;8646;49.716;9.266;2023-02-19T00:28:28;100654.59;;;11.65;78.38
17060;BME280;8646;49.716;9.266;2023-02-19T00:31:32;100653.66;;;11.66;78.21
17060;BME280;8646;49.716;9.266;2023-02-19T00:34:36;100657.28;;;11.65;78.14
17060;BME280;8646;49.716;9.266;2023-02-19T00:37:39;100650.03;;;11.66;78.12
17060;BME280;8646;49.716;9.266;2023-02-19T00:40:42;100649.34;;;11.61;78.39
17060;BME280;8646;49.716;9.266;2023-02-19T00:43:46;100660.44;;;11.55;78.50
17060;BME280;8646;49.716;9.266;2023-02-19T00:46:49;100657.41;;;11.62;78.89
17060;BME280;8646;49.716;9.266;2023-02-19T00:49:53;100663.91;;;11.58;79.10
17060;BME280;8646;49.716;9.266;2023-02-19T00:52:56;100645.88;;;11.57;79.05
17060;BME280;8646;49.716;9.266;2023-02-19T00:55:58;100652.13;;;11.59;78.91
17060;BME280;8646;49.716;9.266;2023-02-19T00:59:01;100642.25;;;11.58;79.19
17060;BME280;8646;49.716;9.266;2023-02-19T01:02:04;100645.19;;;11.52;79.05
17060;BME280;8646;49.716;9.266;2023-02-19T01:05:08;100645.19;;;11.52;79.38
17060;BME280;8646;49.716;9.266;2023-02-19T01:08:11;100643.44;;;11.51;79.30
17060;BME280;8646;49.716;9.266;2023-02-19T01:11:15;100647.97;;;11.51;79.75
17060;BME280;8646;49.716;9.266;2023-02-19T01:14:23;100650.59;;;11.52;79.43
17060;BME280;8646;49.716;9.266;2023-02-19T01:17:26;100649.72;;;11.52;79.43
17060;BME280;8646;49.716;9.266;2023-02-19T01:20:30;100644.56;;;11.45;79.26
17060;BME280;8646;49.716;9.266;2023-02-19T01:23:33;100654.97;;;11.56;79.04
17060;BME280;8646;49.716;9.266;2023-02-19T01:26:36;100661.44;;;11.52;79.28
17060;BME280;8646;49.716;9.266;2023-02-19T01:29:39;100648.09;;;11.47;79.73
17060;BME280;8646;49.716;9.266;2023-02-19T01:32:42;100627.19;;;11.51;79.33
17060;BME280;8646;49.716;9.266;2023-02-19T01:35:46;100625.31;;;11.52;79.24
17060;BME280;8646;49.716;9.266;2023-02-19T01:38:49;100636.09;;;11.53;79.37
17060;BME280;8646;49.716;9.266;2023-02-19T01:41:51;100623.66;;;11.49;79.43
17060;BME280;8646;49.716;9.266;2023-02-19T01:45:18;100616.72;;;11.42;79.49
17060;BME280;8646;49.716;9.266;2023-02-19T01:48:25;100631.72;;;11.51;79.22
17060;BME280;8646;49.716;9.266;2023-02-19T01:51:32;100626.47;;;11.46;79.46
17060;BME280;8646;49.716;9.266;2023-02-19T01:54:37;100629.31;;;11.43;79.98
17060;BME280;8646;49.716;9.266;2023-02-19T01:57:44;100614.81;;;11.44;79.93
17060;BME280;8646;49.716;9.266;2023-02-19T02:00:48;100608.44;;;11.45;79.72
17060;BME280;8646;49.716;9.266;2023-02-19T02:03:52;100602.22;;;11.43;80.01
17060;BME280;8646;49.716;9.266;2023-02-19T02:06:57;100620.31;;;11.42;80.06
17060;BME280;8646;49.716;9.266;2023-02-19T02:10:02;100598.97;;;11.35;80.38
17060;BME280;8646;49.716;9.266;2023-02-19T02:13:22;100598.06;;;11.34;80.41
17060;BME280;8646;49.716;9.266;2023-02-19T02:16:28;100611.69;;;11.33;80.73
17060;BME280;8646;49.716;9.266;2023-02-19T02:19:53;100609.03;;;11.31;81.13
17060;BME280;8646;49.716;9.266;2023-02-19T02:23:08;100599.19;;;11.29;81.49
17060;BME280;8646;49.716;9.266;2023-02-19T02:26:24;100592.09;;;11.26;81.63
17060;BME280;8646;49.716;9.266;2023-02-19T02:33:16;100593.91;;;11.26;81.87
17060;BME280;8646;49.716;9.266;2023-02-19T02:36:24;100601.22;;;11.24;81.87
17060;BME280;8646;49.716;9.266;2023-02-19T02:39:29;100602.03;;;11.26;81.88
17060;BME280;8646;49.716;9.266;2023-02-19T02:42:33;100605.81;;;11.22;82.68
17060;BME280;8646;49.716;9.266;2023-02-19T02:45:36;100598.56;;;11.22;82.15
17060;BME280;8646;49.716;9.266;2023-02-19T02:48:45;100590.50;;;11.21;82.21
17060;BME280;8646;49.716;9.266;2023-02-19T02:51:54;100588.56;;;11.24;82.33
17060;BME280;8646;49.716;9.266;2023-02-19T02:54:58;100588.50;;;11.26;82.56
17060;BME280;8646;49.716;9.266;2023-02-19T02:58:10;100586.84;;;11.22;82.57
17060;BME280;8646;49.716;9.266;2023-02-19T03:01:16;100582.41;;;11.19;82.51
17060;BME280;8646;49.716;9.266;2023-02-19T03:04:45;100569.09;;;11.15;82.83
17060;BME280;8646;49.716;9.266;2023-02-19T03:08:09;100584.28;;;11.19;82.95
17060;BME280;8646;49.716;9.266;2023-02-19T03:11:13;100575.06;;;11.23;82.53
17060;BME280;8646;49.716;9.266;2023-02-19T03:14:37;100565.06;;;11.25;82.75
17060;BME280;8646;49.716;9.266;2023-02-19T03:18:01;100557.97;;;11.21;82.86
17060;BME280;8646;49.716;9.266;2023-02-19T03:21:24;100563.19;;;11.27;82.85
17060;BME280;8646;49.716;9.266;2023-02-19T03:24:31;100559.75;;;11.22;83.08
17060;BME280;8646;49.716;9.266;2023-02-19T03:27:55;100569.75;;;11.20;82.84
17060;BME280;8646;49.716;9.266;2023-02-19T03:30:59;100556.22;;;11.20;82.84
17060;BME280;8646;49.716;9.266;2023-02-19T03:34:04;100561.63;;;11.20;83.15
17060;BME280;8646;49.716;9.266;2023-02-19T03:37:13;100575.19;;;11.20;82.93
17060;BME280;8646;49.716;9.266;2023-02-19T03:40:17;100562.41;;;11.23;82.85
17060;BME280;8646;49.716;9.266;2023-02-19T03:43:23;100531.78;;;11.21;82.93
17060;BME280;8646;49.716;9.266;2023-02-19T03:46:32;100536.53;;;11.16;83.09
17060;BME280;8646;49.716;9.266;2023-02-19T03:49:41;100540.16;;;11.15;82.95
17060;BME280;8646;49.716;9.266;2023-02-19T03:52:55;100510.25;;;10.96;82.79
17060;BME280;8646;49.716;9.266;2023-02-19T03:56:06;100552.72;;;11.18;82.73
17060;BME280;8646;49.716;9.266;2023-02-19T03:59:13;100549.28;;;11.13;82.29
17060;BME280;8646;49.716;9.266;2023-02-19T04:02:23;100550.94;;;11.17;82.23
17060;BME280;8646;49.716;9.266;2023-02-19T04:05:32;100563.59;;;11.16;82.39
17060;BME280;8646;49.716;9.266;2023-02-19T04:08:40;100568.03;;;11.19;82.21
17060;BME280;8646;49.716;9.266;2023-02-19T04:11:44;100567.06;;;11.20;82.14
17060;BME280;8646;49.716;9.266;2023-02-19T04:14:51;100561.00;;;11.13;81.87
17060;BME280;8646;49.716;9.266;2023-02-19T04:17:57;100580.53;;;11.21;81.43
17060;BME280;8646;49.716;9.266;2023-02-19T04:21:03;100591.31;;;11.23;81.70
17060;BME280;8646;49.716;9.266;2023-02-19T04:24:11;100591.53;;;11.18;81.74
17060;BME280;8646;49.716;9.266;2023-02-19T04:27:16;100591.38;;;11.21;81.75
17060;BME280;8646;49.716;9.266;2023-02-19T04:30:20;100571.47;;;11.22;81.60
17060;BME280;8646;49.716;9.266;2023-02-19T04:33:23;100586.84;;;11.22;81.87
17060;BME280;8646;49.716;9.266;2023-02-19T04:36:26;100585.97;;;11.21;81.69
17060;BME280;8646;49.716;9.266;2023-02-19T04:39:30;100578.78;;;11.20;81.60
17060;BME280;8646;49.716;9.266;2023-02-19T04:42:33;100585.22;;;11.18;81.89
17060;BME280;8646;49.716;9.266;2023-02-19T04:45:36;100575.94;;;11.23;82.08
17060;BME280;8646;49.716;9.266;2023-02-19T04:48:39;100570.59;;;11.22;82.39
17060;BME280;8646;49.716;9.266;2023-02-19T04:51:43;100565.50;;;11.14;82.60
17060;BME280;8646;49.716;9.266;2023-02-19T04:54:47;100588.00;;;11.16;82.57
17060;BME280;8646;49.716;9.266;2023-02-19T04:57:50;100598.75;;;11.18;82.88
17060;BME280;8646;49.716;9.266;2023-02-19T05:00:52;100606.81;;;11.19;82.45
17060;BME280;8646;49.716;9.266;2023-02-19T05:03:55;100616.91;;;11.16;82.96
17060;BME280;8646;49.716;9.266;2023-02-19T05:06:58;100600.69;;;11.14;82.75
17060;BME280;8646;49.716;9.266;2023-02-19T05:10:04;100607.78;;;11.18;82.40
17060;BME280;8646;49.716;9.266;2023-02-19T05:13:07;100607.78;;;11.18;82.50
17060;BME280;8646;49.716;9.266;2023-02-19T05:16:11;100606.75;;;11.21;82.48
17060;BME280;8646;49.716;9.266;2023-02-19T05:19:16;100623.16;;;11.18;82.10
17060;BME280;8646;49.716;9.266;2023-02-19T05:22:19;100609.66;;;11.16;82.73
17060;BME280;8646;49.716;9.266;2023-02-19T05:25:23;100599.81;;;11.14;82.64
17060;BME280;8646;49.716;9.266;2023-02-19T05:28:25;100603.47;;;11.13;83.05
17060;BME280;8646;49.716;9.266;2023-02-19T05:31:30;100600.06;;;11.07;83.18
17060;BME280;8646;49.716;9.266;2023-02-19T05:34:34;100596.53;;;11.05;83.53
17060;BME280;8646;49.716;9.266;2023-02-19T05:37:36;100603.66;;;11.08;83.92
17060;BME280;8646;49.716;9.266;2023-02-19T05:40:41;100638.00;;;11.07;84.20
17060;BME280;8646;49.716;9.266;2023-02-19T05:43:45;100633.75;;;11.00;84.50
17060;BME280;8646;49.716;9.266;2023-02-19T05:46:48;100622.16;;;10.97;84.70
17060;BME280;8646;49.716;9.266;2023-02-19T05:49:51;100623.97;;;10.96;84.90
17060;BME280;8646;49.716;9.266;2023-02-19T05:52:53;100607.03;;;10.91;84.83
17060;BME280;8646;49.716;9.266;2023-02-19T05:55:58;100624.22;;;10.90;85.24
17060;BME280;8646;49.716;9.266;2023-02-19T05:59:02;100618.91;;;10.87;85.53
17060;BME280;8646;49.716;9.266;2023-02-19T06:02:08;100619.91;;;10.86;86.13
17060;BME280;8646;49.716;9.266;2023-02-19T06:05:12;100625.53;;;10.80;86.05
17060;BME280;8646;49.716;9.266;2023-02-19T06:08:15;100640.81;;;10.81;86.31
17060;BME280;8646;49.716;9.266;2023-02-19T06:11:19;100650.91;;;10.78;86.50
17060;BME280;8646;49.716;9.266;2023-02-19T06:14:22;100659.91;;;10.78;86.44
17060;BME280;8646;49.716;9.266;2023-02-19T06:17:25;100676.31;;;10.74;86.57
17060;BME280;8646;49.716;9.266;2023-02-19T06:20:28;100668.25;;;10.72;86.55
17060;BME280;8646;49.716;9.266;2023-02-19T06:23:32;100677.19;;;10.74;86.92
17060;BME280;8646;49.716;9.266;2023-02-19T06:26:36;100682.66;;;10.73;86.69
17060;BME280;8646;49.716;9.266;2023-02-19T06:29:39;100689.91;;;10.72;86.60
17060;BME280;8646;49.716;9.266;2023-02-19T06:32:42;100696.19;;;10.73;86.75
17060;BME280;8646;49.716;9.266;2023-02-19T06:35:45;100693.44;;;10.74;86.64
17060;BME280;8646;49.716;9.266;2023-02-19T06:38:48;100700.53;;;10.78;86.37
17060;BME280;8646;49.716;9.266;2023-02-19T06:41:54;100707.88;;;10.75;86.48
17060;BME280;8646;49.716;9.266;2023-02-19T06:44:57;100704.09;;;10.79;86.27
17060;BME280;8646;49.716;9.266;2023-02-19T06:48:01;100698.66;;;10.79;86.43
17060;BME280;8646;49.716;9.266;2023-02-19T06:51:04;100708.66;;;10.78;86.59
17060;BME280;8646;49.716;9.266;2023-02-19T06:54:07;100709.50;;;10.79;86.27
17060;BME280;8646;49.716;9.266;2023-02-19T06:57:11;100710.38;;;10.79;86.16
17060;BME280;8646;49.716;9.266;2023-02-19T07:00:14;100707.56;;;10.82;86.33
17060;BME280;8646;49.716;9.266;2023-02-19T07:03:17;100712.97;;;10.82;86.35
17060;BME280;8646;49.716;9.266;2023-02-19T07:06:21;100723.72;;;10.85;86.28
17060;BME280;8646;49.716;9.266;2023-02-19T07:09:24;100724.31;;;10.93;86.32
17060;BME280;8646;49.716;9.266;2023-02-19T07:12:30;100735.94;;;10.95;85.88
17060;BME280;8646;49.716;9.266;2023-02-19T07:15:33;100743.91;;;11.00;85.74
17060;BME280;8646;49.716;9.266;2023-02-19T07:18:36;100730.22;;;11.03;85.61
17060;BME280;8646;49.716;9.266;2023-02-19T07:21:39;100738.34;;;11.03;85.79
17060;BME280;8646;49.716;9.266;2023-02-19T07:24:42;100746.31;;;11.07;85.41
17060;BME280;8646;49.716;9.266;2023-02-19T07:27:49;100733.66;;;11.08;85.17
17060;BME280;8646;49.716;9.266;2023-02-19T07:30:52;100740.91;;;11.07;85.02
17060;BME280;8646;49.716;9.266;2023-02-19T07:33:55;100746.66;;;10.98;85.08
17060;BME280;8646;49.716;9.266;2023-02-19T07:36:58;100724.22;;;10.95;85.14
17060;BME280;8646;49.716;9.266;2023-02-19T07:40:01;100735.97;;;11.19;84.42
17060;BME280;8646;49.716;9.266;2023-02-19T07:43:05;100738.69;;;11.19;84.48
17060;BME280;8646;49.716;9.266;2023-02-19T07:46:10;100745.03;;;11.18;84.10
17060;BME280;8646;49.716;9.266;2023-02-19T07:49:13;100745.94;;;11.18;84.30
17060;BME280;8646;49.716;9.266;2023-02-19T07:52:16;100754.69;;;11.25;84.14
17060;BME280;8646;49.716;9.266;2023-02-19T07:55:19;100749.66;;;11.37;84.30
17060;BME280;8646;49.716;9.266;2023-02-19T07:58:23;100746.44;;;11.51;84.08
17060;BME280;8646;49.716;9.266;2023-02-19T08:01:25;100745.88;;;11.65;83.70
17060;BME280;8646;49.716;9.266;2023-02-19T08:04:42;100752.22;;;11.87;83.14
17060;BME280;8646;49.716;9.266;2023-02-19T08:07:46;100744.84;;;11.91;82.47
17060;BME280;8646;49.716;9.266;2023-02-19T08:10:49;100745.53;;;11.96;81.73
17060;BME280;8646;49.716;9.266;2023-02-19T08:14:10;100755.94;;;12.06;81.45
17060;BME280;8646;49.716;9.266;2023-02-19T08:17:13;100750.25;;;12.12;81.10
17060;BME280;8646;49.716;9.266;2023-02-19T08:20:16;100751.34;;;12.29;80.47
17060;BME280;8646;49.716;9.266;2023-02-19T08:23:19;100730.53;;;12.29;79.43
17060;BME280;8646;49.716;9.266;2023-02-19T08:26:22;100722.44;;;12.28;78.22
17060;BME280;8646;49.716;9.266;2023-02-19T08:29:26;100762.88;;;12.34;78.34
17060;BME280;8646;49.716;9.266;2023-02-19T08:32:29;100757.66;;;12.29;78.58
17060;BME280;8646;49.716;9.266;2023-02-19T08:35:33;100755.91;;;12.28;78.39
17060;BME280;8646;49.716;9.266;2023-02-19T08:38:37;100761.31;;;12.28;78.49
17060;BME280;8646;49.716;9.266;2023-02-19T08:41:40;100762.72;;;12.38;77.97
17060;BME280;8646;49.716;9.266;2023-02-19T08:44:44;100763.91;;;12.51;76.85
17060;BME280;8646;49.716;9.266;2023-02-19T08:47:46;100759.97;;;12.58;76.83
17060;BME280;8646;49.716;9.266;2023-02-19T08:50:53;100767.72;;;12.68;76.12
17060;BME280;8646;49.716;9.266;2023-02-19T08:53:56;100771.81;;;12.78;75.70
17060;BME280;8646;49.716;9.266;2023-02-19T08:56:59;100773.00;;;12.91;75.05
17060;BME280;8646;49.716;9.266;2023-02-19T09:00:05;100748.25;;;12.78;74.03
17060;BME280;8646;49.716;9.266;2023-02-19T09:03:08;100802.34;;;13.03;73.82
17060;BME280;8646;49.716;9.266;2023-02-19T09:06:14;100794.81;;;13.10;74.14
17060;BME280;8646;49.716;9.266;2023-02-19T09:09:17;100807.06;;;13.20;72.95
17060;BME280;8646;49.716;9.266;2023-02-19T09:12:20;100808.31;;;13.11;73.27
17060;BME280;8646;49.716;9.266;2023-02-19T09:15:25;100807.94;;;13.20;73.31
17060;BME280;8646;49.716;9.266;2023-02-19T09:18:30;100795.44;;;13.16;72.85
17060;BME280;8646;49.716;9.266;2023-02-19T09:21:32;100823.19;;;13.23;72.54
17060;BME280;8646;49.716;9.266;2023-02-19T09:24:35;100819.19;;;13.31;70.94
17060;BME280;8646;49.716;9.266;2023-02-19T09:27:38;100812.94;;;13.09;71.91
17060;BME280;8646;49.716;9.266;2023-02-19T09:30:42;100819.31;;;13.08;73.01
17060;BME280;8646;49.716;9.266;2023-02-19T09:33:46;100830.19;;;13.08;72.08
17060;BME280;8646;49.716;9.266;2023-02-19T09:36:49;100825.75;;;13.06;71.75
17060;BME280;8646;49.716;9.266;2023-02-19T09:39:51;100817.72;;;13.04;71.10
17060;BME280;8646;49.716;9.266;2023-02-19T09:42:54;100826.75;;;13.05;72.13
17060;BME280;8646;49.716;9.266;2023-02-19T09:46:01;100821.66;;;13.17;71.47
17060;BME280;8646;49.716;9.266;2023-02-19T09:49:06;100836.78;;;13.23;71.85
17060;BME280;8646;49.716;9.266;2023-02-19T09:52:18;100843.88;;;13.27;71.77
17060;BME280;8646;49.716;9.266;2023-02-19T09:55:30;100838.56;;;13.24;72.02
17060;BME280;8646;49.716;9.266;2023-02-19T09:58:34;100851.16;;;13.26;71.38
17060;BME280;8646;49.716;9.266;2023-02-19T10:01:39;100834.31;;;13.18;71.24
17060;BME280;8646;49.716;9.266;2023-02-19T10:04:44;100827.53;;;13.07;71.29
17060;BME280;8646;49.716;9.266;2023-02-19T10:07:50;100835.09;;;13.00;71.89
17060;BME280;8646;49.716;9.266;2023-02-19T10:10:53;100832.25;;;13.03;71.70
17060;BME280;8646;49.716;9.266;2023-02-19T10:14:03;100823.56;;;13.15;70.04
17060;BME280;8646;49.716;9.266;2023-02-19T10:17:18;100834.13;;;13.01;70.54
17060;BME280;8646;49.716;9.266;2023-02-19T10:20:24;100857.63;;;13.02;70.96
17060;BME280;8646;49.716;9.266;2023-02-19T10:23:28;100873.81;;;13.05;71.13
17060;BME280;8646;49.716;9.266;2023-02-19T10:26:31;100873.28;;;13.17;70.94
17060;BME280;8646;49.716;9.266;2023-02-19T10:29:36;100870.69;;;13.34;70.02
17060;BME280;8646;49.716;9.266;2023-02-19T10:32:57;100888.50;;;13.42;69.56
17060;BME280;8646;49.716;9.266;2023-02-19T10:36:03;100886.59;;;13.44;69.56
17060;BME280;8646;49.716;9.266;2023-02-19T10:39:34;100904.47;;;13.49;69.38
17060;BME280;8646;49.716;9.266;2023-02-19T10:42:44;100891.88;;;13.47;68.60
17060;BME280;8646;49.716;9.266;2023-02-19T10:45:48;100909.19;;;13.64;68.74
17060;BME280;8646;49.716;9.266;2023-02-19T10:48:56;100907.34;;;13.65;68.63
17060;BME280;8646;49.716;9.266;2023-02-19T10:52:01;100913.63;;;13.67;68.61
17060;BME280;8646;49.716;9.266;2023-02-19T10:55:19;100901.03;;;13.64;67.75
17060;BME280;8646;49.716;9.266;2023-02-19T10:58:26;100898.53;;;13.60;67.93
17060;BME280;8646;49.716;9.266;2023-02-19T11:01:29;100903.44;;;13.52;67.29
17060;BME280;8646;49.716;9.266;2023-02-19T11:04:33;100921.78;;;13.47;66.91
17060;BME280;8646;49.716;9.266;2023-02-19T11:07:44;100928.31;;;13.43;66.80
17060;BME280;8646;49.716;9.266;2023-02-19T11:10:48;100913.25;;;13.35;66.61
17060;BME280;8646;49.716;9.266;2023-02-19T11:13:52;100917.97;;;13.10;66.67
17060;BME280;8646;49.716;9.266;2023-02-19T11:16:57;100924.47;;;13.06;67.05
17060;BME280;8646;49.716;9.266;2023-02-19T11:20:05;100930.72;;;13.08;66.85
17060;BME280;8646;49.716;9.266;2023-02-19T11:23:13;100872.81;;;12.66;67.60
17060;BME280;8646;49.716;9.266;2023-02-19T11:26:20;100935.06;;;12.92;67.92
17060;BME280;8646;49.716;9.266;2023-02-19T11:29:24;100931.72;;;12.85;68.05
17060;BME280;8646;49.716;9.266;2023-02-19T11:32:29;100942.66;;;12.84;68.26
17060;BME280;8646;49.716;9.266;2023-02-19T11:35:34;100950.78;;;12.84;68.39
17060;BME280;8646;49.716;9.266;2023-02-19T11:38:36;100936.00;;;12.91;67.83
17060;BME280;8646;49.716;9.266;2023-02-19T11:42:07;100919.19;;;13.03;67.52
17060;BME280;8646;49.716;9.266;2023-02-19T11:45:27;100926.03;;;13.13;67.41
17060;BME280;8646;49.716;9.266;2023-02-19T11:48:52;100929.47;;;13.17;67.23
17060;BME280;8646;49.716;9.266;2023-02-19T11:52:09;100926.34;;;13.26;66.85
17060;BME280;8646;49.716;9.266;2023-02-19T11:55:33;100929.19;;;13.23;67.14
17060;BME280;8646;49.716;9.266;2023-02-19T11:58:54;100949.25;;;13.20;66.85
17060;BME280;8646;49.716;9.266;2023-02-19T12:02:27;100955.41;;;13.04;68.14
17060;BME280;8646;49.716;9.266;2023-02-19T12:05:42;100958.13;;;12.82;68.54
17060;BME280;8646;49.716;9.266;2023-02-19T12:12:27;100954.16;;;12.69;69.99
17060;BME280;8646;49.716;9.266;2023-02-19T12:15:56;100967.25;;;12.81;70.64
17060;BME280;8646;49.716;9.266;2023-02-19T12:19:24;100970.66;;;12.64;71.14
17060;BME280;8646;49.716;9.266;2023-02-19T12:22:32;100963.31;;;12.88;71.30
17060;BME280;8646;49.716;9.266;2023-02-19T12:25:48;100944.19;;;13.11;69.07
17060;BME280;8646;49.716;9.266;2023-02-19T12:29:12;100951.16;;;13.18;69.56
17060;BME280;8646;49.716;9.266;2023-02-19T12:32:34;100949.09;;;13.23;69.70
17060;BME280;8646;49.716;9.266;2023-02-19T12:35:45;100955.91;;;13.33;69.85
17060;BME280;8646;49.716;9.266;2023-02-19T12:38:58;100951.69;;;13.47;69.61
17060;BME280;8646;49.716;9.266;2023-02-19T12:42:09;100938.50;;;13.58;68.65
17060;BME280;8646;49.716;9.266;2023-02-19T12:45:17;100938.38;;;13.61;68.77
17060;BME280;8646;49.716;9.266;2023-02-19T12:48:27;100960.06;;;14.01;67.81
17060;BME280;8646;49.716;9.266;2023-02-19T12:51:36;100955.25;;;14.27;67.59
17060;BME280;8646;49.716;9.266;2023-02-19T12:54:43;100946.19;;;14.45;66.76
17060;BME280;8646;49.716;9.266;2023-02-19T12:57:49;100949.41;;;14.72;65.88
17060;BME280;8646;49.716;9.266;2023-02-19T13:00:54;100955.00;;;15.05;64.86
17060;BME280;8646;49.716;9.266;2023-02-19T13:04:15;100943.22;;;15.04;64.62
17060;BME280;8646;49.716;9.266;2023-02-19T13:07:23;100947.22;;;14.97;63.92
17060;BME280;8646;49.716;9.266;2023-02-19T13:10:30;100926.97;;;14.84;63.41
17060;BME280;8646;49.716;9.266;2023-02-19T13:13:40;100914.88;;;14.72;63.63
17060;BME280;8646;49.716;9.266;2023-02-19T13:16:49;100905.38;;;14.62;62.77
17060;BME280;8646;49.716;9.266;2023-02-19T13:19:57;100903.78;;;14.58;62.25
17060;BME280;8646;49.716;9.266;2023-02-19T13:23:10;100913.13;;;14.52;61.98
17060;BME280;8646;49.716;9.266;2023-02-19T13:26:54;100904.88;;;14.54;61.15
17060;BME280;8646;49.716;9.266;2023-02-19T13:30:14;100907.84;;;14.49;61.13
17060;BME280;8646;49.716;9.266;2023-02-19T13:33:36;100916.41;;;14.42;59.80
17060;BME280;8646;49.716;9.266;2023-02-19T13:36:44;100926.47;;;14.40;56.00
17060;BME280;8646;49.716;9.266;2023-02-19T13:39:50;100908.50;;;13.98;57.70
17060;BME280;8646;49.716;9.266;2023-02-19T13:42:55;100908.28;;;13.84;59.48
17060;BME280;8646;49.716;9.266;2023-02-19T13:46:03;100906.38;;;13.86;58.99
17060;BME280;8646;49.716;9.266;2023-02-19T13:49:24;100921.88;;;13.84;57.99
17060;BME280;8646;49.716;9.266;2023-02-19T13:52:40;100931.28;;;13.77;58.72
17060;BME280;8646;49.716;9.266;2023-02-19T13:55:48;100931.47;;;13.72;59.00
17060;BME280;8646;49.716;9.266;2023-02-19T13:58:55;100932.31;;;13.74;58.58
17060;BME280;8646;49.716;9.266;2023-02-19T14:02:12;100927.94;;;13.70;59.32
17060;BME280;8646;49.716;9.266;2023-02-19T14:05:57;100925.72;;;13.60;59.02
17060;BME280;8646;49.716;9.266;2023-02-19T14:09:00;100922.47;;;13.52;59.71
17060;BME280;8646;49.716;9.266;2023-02-19T14:12:17;100945.53;;;13.43;60.45
17060;BME280;8646;49.716;9.266;2023-02-19T14:15:41;100933.88;;;13.40;61.14
17060;BME280;8646;49.716;9.266;2023-02-19T14:18:46;100942.19;;;13.36;61.47
17060;BME280;8646;49.716;9.266;2023-02-19T14:21:50;100955.78;;;13.36;61.83
17060;BME280;8646;49.716;9.266;2023-02-19T14:24:53;100948.59;;;13.35;62.52
17060;BME280;8646;49.716;9.266;2023-02-19T14:28:00;100950.34;;;13.36;62.36
17060;BME280;8646;49.716;9.266;2023-02-19T14:31:20;100949.66;;;13.31;62.49
17060;BME280;8646;49.716;9.266;2023-02-19T14:34:25;100954.03;;;13.35;62.73
17060;BME280;8646;49.716;9.266;2023-02-19T14:37:28;100965.84;;;13.34;62.88
17060;BME280;8646;49.716;9.266;2023-02-19T14:40:36;100967.97;;;13.28;62.97
17060;BME280;8646;49.716;9.266;2023-02-19T14:43:42;100970.72;;;13.26;63.05
17060;BME280;8646;49.716;9.266;2023-02-19T14:46:56;100959.50;;;13.14;63.10
17060;BME280;8646;49.716;9.266;2023-02-19T14:50:04;100976.56;;;13.17;63.27
17060;BME280;8646;49.716;9.266;2023-02-19T14:53:09;100988.25;;;13.19;63.56
17060;BME280;8646;49.716;9.266;2023-02-19T14:56:19;100982.00;;;13.17;63.80
17060;BME280;8646;49.716;9.266;2023-02-19T14:59:25;100980.09;;;13.19;63.73
17060;BME280;8646;49.716;9.266;2023-02-19T15:02:30;100981.88;;;13.20;63.12
17060;BME280;8646;49.716;9.266;2023-02-19T15:05:35;100985.53;;;13.19;63.38
17060;BME280;8646;49.716;9.266;2023-02-19T15:08:42;100997.59;;;13.12;63.63
17060;BME280;8646;49.716;9.266;2023-02-19T15:11:45;100991.25;;;13.13;64.11
17060;BME280;8646;49.716;9.266;2023-02-19T15:14:49;100979.69;;;13.07;64.23
17060;BME280;8646;49.716;9.266;2023-02-19T15:17:55;100973.03;;;13.15;63.76
17060;BME280;8646;49.716;9.266;2023-02-19T15:21:02;100976.28;;;13.23;62.27
17060;BME280;8646;49.716;9.266;2023-02-19T15:24:06;100985.81;;;13.13;62.51
17060;BME280;8646;49.716;9.266;2023-02-19T15:27:14;100985.06;;;13.08;63.01
17060;BME280;8646;49.716;9.266;2023-02-19T15:30:20;100979.63;;;13.08;62.70
17060;BME280;8646;49.716;9.266;2023-02-19T15:33:26;100998.94;;;13.02;62.35
17060;BME280;8646;49.716;9.266;2023-02-19T15:36:32;100992.03;;;12.93;62.38
17060;BME280;8646;49.716;9.266;2023-02-19T15:39:38;100997.69;;;12.89;62.16
17060;BME280;8646;49.716;9.266;2023-02-19T15:42:43;101004.84;;;12.90;62.16
17060;BME280;8646;49.716;9.266;2023-02-19T15:45:48;101010.56;;;12.84;62.65
17060;BME280;8646;49.716;9.266;2023-02-19T15:48:58;101011.56;;;12.81;62.53
17060;BME280;8646;49.716;9.266;2023-02-19T15:52:06;101010.81;;;12.78;62.59
17060;BME280;8646;49.716;9.266;2023-02-19T15:55:26;101013.47;;;12.79;65.91
17060;BME280;8646;49.716;9.266;2023-02-19T15:58:34;101074.31;;;12.04;83.20
17060;BME280;8646;49.716;9.266;2023-02-19T16:01:41;101101.56;;;11.22;87.71
17060;BME280;8646;49.716;9.266;2023-02-19T16:04:44;101088.47;;;10.80;91.70
17060;BME280;8646;49.716;9.266;2023-02-19T16:08:04;101104.19;;;10.69;93.53
17060;BME280;8646;49.716;9.266;2023-02-19T16:11:26;101101.84;;;10.57;94.69
17060;BME280;8646;49.716;9.266;2023-02-19T16:14:31;101106.22;;;10.31;96.56
17060;BME280;8646;49.716;9.266;2023-02-19T16:17:34;101095.66;;;10.22;97.28
17060;BME280;8646;49.716;9.266;2023-02-19T16:20:37;101090.38;;;10.18;97.35
17060;BME280;8646;49.716;9.266;2023-02-19T16:23:42;101090.59;;;10.10;95.96
17060;BME280;8646;49.716;9.266;2023-02-19T16:26:45;101081.31;;;10.20;95.19
17060;BME280;8646;49.716;9.266;2023-02-19T16:29:49;101081.09;;;10.28;93.76
17060;BME280;8646;49.716;9.266;2023-02-19T16:33:18;101075.53;;;10.32;93.46
17060;BME280;8646;49.716;9.266;2023-02-19T16:36:23;101072.81;;;10.32;93.23
17060;BME280;8646;49.716;9.266;2023-02-19T16:39:31;101073.44;;;10.42;93.15